C6040 KSAN-KSAN
Flight info
| Callsign | C6040 |
|---|---|
| Flight time | 0h 1m |
| Altitude | 1500 |
| Route | W |
| Aircraft | H60/L-VGD/C |
Departure
| Time | 2026-04-24 03:01 |
|---|---|
| Airport | San Diego International Airport (KSAN) |
Arrival
| Time | 2026-04-24 03:03 |
|---|---|
| Airport | San Diego International Airport (KSAN) |
| Time | Latitude | Longitude | Altitude | Speed | Heading |
|---|---|---|---|---|---|
| 2026-04-24 01:44 | 32.68721 | -117.52851 | 190 ft | 151 kts | 277° |
| 2026-04-24 01:45 | 32.68845 | -117.54086 | 191 ft | 151 kts | 277° |
| 2026-04-24 01:45 | 32.68969 | -117.55321 | 192 ft | 151 kts | 277° |
| 2026-04-24 01:45 | 32.69093 | -117.56557 | 190 ft | 151 kts | 277° |
| 2026-04-24 01:45 | 32.69217 | -117.57791 | 191 ft | 151 kts | 277° |
| 2026-04-24 01:46 | 32.69340 | -117.59027 | 189 ft | 150 kts | 277° |
| 2026-04-24 01:46 | 32.69464 | -117.60261 | 190 ft | 151 kts | 277° |
| 2026-04-24 01:46 | 32.69590 | -117.61496 | 197 ft | 151 kts | 277° |
| 2026-04-24 01:46 | 32.69715 | -117.62732 | 189 ft | 150 kts | 277° |
| 2026-04-24 01:47 | 32.69842 | -117.63967 | 189 ft | 151 kts | 277° |
| 2026-04-24 01:47 | 32.69969 | -117.65203 | 190 ft | 150 kts | 277° |
| 2026-04-24 01:47 | 32.70096 | -117.66435 | 190 ft | 150 kts | 277° |
| 2026-04-24 01:47 | 32.70221 | -117.67664 | 189 ft | 151 kts | 277° |
| 2026-04-24 01:48 | 32.70347 | -117.68897 | 190 ft | 150 kts | 277° |
| 2026-04-24 01:48 | 32.70473 | -117.70128 | 190 ft | 151 kts | 277° |
| 2026-04-24 01:48 | 32.70598 | -117.71366 | 197 ft | 150 kts | 277° |
| 2026-04-24 01:48 | 32.70722 | -117.72599 | 190 ft | 151 kts | 278° |
| 2026-04-24 01:49 | 32.70846 | -117.73829 | 191 ft | 151 kts | 277° |
| 2026-04-24 01:49 | 32.70971 | -117.75070 | 197 ft | 151 kts | 277° |
| 2026-04-24 01:49 | 32.71095 | -117.76303 | 189 ft | 151 kts | 277° |
| 2026-04-24 01:49 | 32.71221 | -117.77538 | 189 ft | 151 kts | 277° |
| 2026-04-24 01:50 | 32.71347 | -117.78773 | 193 ft | 150 kts | 277° |
| 2026-04-24 01:50 | 32.71474 | -117.80008 | 189 ft | 150 kts | 277° |
| 2026-04-24 01:50 | 32.71601 | -117.81244 | 189 ft | 151 kts | 277° |
| 2026-04-24 01:50 | 32.71725 | -117.82461 | 190 ft | 151 kts | 277° |
| 2026-04-24 01:51 | 32.71854 | -117.83712 | 190 ft | 151 kts | 278° |
| 2026-04-24 01:51 | 32.71978 | -117.84923 | 189 ft | 150 kts | 278° |
| 2026-04-24 01:51 | 32.72105 | -117.86158 | 190 ft | 150 kts | 278° |
| 2026-04-24 01:51 | 32.72230 | -117.87392 | 190 ft | 150 kts | 278° |
| 2026-04-24 01:52 | 32.72355 | -117.88621 | 195 ft | 151 kts | 277° |
| 2026-04-24 01:52 | 32.72481 | -117.89856 | 190 ft | 151 kts | 277° |
| 2026-04-24 01:52 | 32.72607 | -117.91089 | 189 ft | 150 kts | 278° |
| 2026-04-24 01:52 | 32.72734 | -117.92322 | 190 ft | 151 kts | 278° |
| 2026-04-24 01:53 | 32.72862 | -117.93556 | 192 ft | 151 kts | 278° |
| 2026-04-24 01:53 | 32.72989 | -117.94791 | 195 ft | 151 kts | 277° |
| 2026-04-24 01:53 | 32.73116 | -117.96029 | 192 ft | 151 kts | 278° |
| 2026-04-24 01:53 | 32.73244 | -117.97264 | 189 ft | 151 kts | 278° |
| 2026-04-24 01:54 | 32.73371 | -117.98496 | 191 ft | 151 kts | 278° |
| 2026-04-24 01:54 | 32.73498 | -117.99733 | 189 ft | 151 kts | 278° |
| 2026-04-24 01:54 | 32.73624 | -118.00968 | 193 ft | 151 kts | 278° |
| 2026-04-24 01:54 | 32.73750 | -118.02203 | 197 ft | 151 kts | 278° |
| 2026-04-24 01:55 | 32.73875 | -118.03436 | 190 ft | 150 kts | 278° |
| 2026-04-24 01:55 | 32.74001 | -118.04670 | 189 ft | 151 kts | 278° |
| 2026-04-24 01:55 | 32.74126 | -118.05907 | 192 ft | 150 kts | 278° |
| 2026-04-24 01:55 | 32.74252 | -118.07143 | 190 ft | 150 kts | 278° |
| 2026-04-24 01:56 | 32.74377 | -118.08374 | 189 ft | 151 kts | 278° |
| 2026-04-24 01:56 | 32.74503 | -118.09611 | 189 ft | 151 kts | 278° |
| 2026-04-24 01:56 | 32.74631 | -118.10847 | 192 ft | 150 kts | 278° |
| 2026-04-24 01:56 | 32.74758 | -118.12082 | 201 ft | 151 kts | 278° |
| 2026-04-24 01:57 | 32.74885 | -118.13318 | 190 ft | 151 kts | 278° |
| 2026-04-24 01:57 | 32.75012 | -118.14555 | 190 ft | 151 kts | 278° |
| 2026-04-24 01:57 | 32.75140 | -118.15787 | 191 ft | 150 kts | 278° |
| 2026-04-24 01:57 | 32.75268 | -118.17019 | 191 ft | 150 kts | 278° |
| 2026-04-24 01:58 | 32.75396 | -118.18254 | 190 ft | 151 kts | 278° |
| 2026-04-24 01:58 | 32.75524 | -118.19484 | 192 ft | 150 kts | 278° |
| 2026-04-24 01:58 | 32.75650 | -118.20718 | 195 ft | 151 kts | 278° |
| 2026-04-24 01:58 | 32.75777 | -118.21954 | 190 ft | 150 kts | 278° |
| 2026-04-24 01:59 | 32.75902 | -118.23189 | 190 ft | 151 kts | 278° |
| 2026-04-24 01:59 | 32.76028 | -118.24410 | 192 ft | 151 kts | 278° |
| 2026-04-24 01:59 | 32.76154 | -118.25645 | 189 ft | 151 kts | 278° |
| 2026-04-24 01:59 | 32.76280 | -118.26881 | 190 ft | 150 kts | 278° |
| 2026-04-24 02:00 | 32.76411 | -118.28115 | 188 ft | 151 kts | 278° |
| 2026-04-24 02:00 | 32.76504 | -118.28945 | 191 ft | 150 kts | 278° |
| 2026-04-24 02:00 | 32.76717 | -118.30574 | 196 ft | 152 kts | 283° |
| 2026-04-24 02:00 | 32.76981 | -118.31776 | 194 ft | 150 kts | 285° |
| 2026-04-24 02:01 | 32.77261 | -118.32975 | 190 ft | 151 kts | 285° |
| 2026-04-24 02:01 | 32.77536 | -118.34169 | 190 ft | 150 kts | 285° |
| 2026-04-24 02:01 | 32.77719 | -118.34979 | 192 ft | 150 kts | 285° |
| 2026-04-24 02:01 | 32.77992 | -118.36181 | 194 ft | 151 kts | 285° |
| 2026-04-24 02:02 | 32.78264 | -118.37381 | 191 ft | 151 kts | 285° |
| 2026-04-24 02:02 | 32.78537 | -118.38585 | 194 ft | 151 kts | 285° |
| 2026-04-24 02:02 | 32.78809 | -118.39789 | 194 ft | 151 kts | 285° |
| 2026-04-24 02:02 | 32.79082 | -118.40992 | 194 ft | 151 kts | 285° |
| 2026-04-24 02:03 | 32.79627 | -118.43273 | 217 ft | 112 kts | 286° |
| 2026-04-24 02:03 | 32.79899 | -118.43921 | 214 ft | 72 kts | 348° |
| 2026-04-24 02:03 | 32.80283 | -118.44027 | 206 ft | 40 kts | 347° |
| 2026-04-24 02:04 | 32.80396 | -118.44050 | 200 ft | 1 kts | 17° |
| 2026-04-24 02:04 | 32.80395 | -118.44050 | 203 ft | 1 kts | 17° |
| 2026-04-24 02:04 | 32.80441 | -118.44028 | 201 ft | 23 kts | 20° |
| 2026-04-24 02:04 | 32.80730 | -118.43927 | 262 ft | 67 kts | 31° |
| 2026-04-24 02:05 | 32.81278 | -118.44084 | 466 ft | 98 kts | 350° |
| 2026-04-24 02:05 | 32.81838 | -118.44594 | 681 ft | 62 kts | 40° |
| 2026-04-24 02:05 | 32.81932 | -118.44249 | 730 ft | 84 kts | 111° |
| 2026-04-24 02:05 | 32.81940 | -118.43354 | 730 ft | 121 kts | 96° |
| 2026-04-24 02:06 | 32.81997 | -118.42285 | 795 ft | 137 kts | 91° |
| 2026-04-24 02:06 | 32.82106 | -118.41161 | 836 ft | 132 kts | 81° |
| 2026-04-24 02:06 | 32.82437 | -118.40150 | 905 ft | 135 kts | 70° |
| 2026-04-24 02:06 | 32.82772 | -118.39207 | 1191 ft | 112 kts | 75° |
| 2026-04-24 02:07 | 32.83043 | -118.38381 | 1330 ft | 104 kts | 79° |
| 2026-04-24 02:07 | 32.82918 | -118.37560 | 1152 ft | 107 kts | 134° |
| 2026-04-24 02:07 | 32.82481 | -118.36833 | 949 ft | 108 kts | 129° |
| 2026-04-24 02:07 | 32.81994 | -118.36139 | 603 ft | 112 kts | 135° |
| 2026-04-24 02:08 | 32.81600 | -118.35528 | 527 ft | 69 kts | 191° |
| 2026-04-24 02:08 | 32.81582 | -118.35609 | 227 ft | 65 kts | 324° |
| 2026-04-24 02:08 | 32.81842 | -118.35713 | 276 ft | 21 kts | 310° |
| 2026-04-24 02:08 | 32.81854 | -118.35743 | 207 ft | 0 kts | 308° |
| 2026-04-24 02:09 | 32.81864 | -118.35785 | 206 ft | 7 kts | 276° |
| 2026-04-24 02:09 | 32.81864 | -118.35787 | 255 ft | 0 kts | 276° |
| 2026-04-24 02:09 | 32.81839 | -118.35823 | 211 ft | 0 kts | 235° |
| 2026-04-24 02:09 | 32.81822 | -118.35853 | 207 ft | 16 kts | 237° |
| 2026-04-24 02:10 | 32.81784 | -118.35849 | 182 ft | 5 kts | 237° |
| 2026-04-24 02:10 | 32.81795 | -118.35859 | 90 ft | 13 kts | 237° |
| 2026-04-24 02:10 | 32.81818 | -118.35878 | 21 ft | 0 kts | 237° |
| 2026-04-24 02:10 | 32.81836 | -118.35853 | 44 ft | 4 kts | 237° |
| 2026-04-24 02:11 | 32.81818 | -118.35886 | 93 ft | 2 kts | 237° |
| 2026-04-24 02:11 | 32.81790 | -118.35864 | 110 ft | 6 kts | 237° |
| 2026-04-24 02:11 | 32.81769 | -118.35848 | 107 ft | 0 kts | 237° |
| 2026-04-24 02:11 | 32.81748 | -118.35861 | 105 ft | 5 kts | 237° |
| 2026-04-24 02:12 | 32.81736 | -118.35864 | 106 ft | 0 kts | 237° |
| 2026-04-24 02:12 | 32.81736 | -118.35865 | 47 ft | 0 kts | 237° |
| 2026-04-24 02:12 | 32.81732 | -118.35862 | 42 ft | 1 kts | 237° |
| 2026-04-24 02:12 | 32.81733 | -118.35861 | 42 ft | 0 kts | 175° |
| 2026-04-24 02:13 | 32.81716 | -118.35860 | 44 ft | 0 kts | 175° |
| 2026-04-24 02:13 | 32.81716 | -118.35859 | 44 ft | 3 kts | 175° |
| 2026-04-24 02:13 | 32.81716 | -118.35855 | 45 ft | 0 kts | 175° |
| 2026-04-24 02:14 | 32.81714 | -118.35855 | 44 ft | 5 kts | 175° |
| 2026-04-24 02:14 | 32.81697 | -118.35853 | 46 ft | 0 kts | 175° |
| 2026-04-24 02:15 | 32.81697 | -118.35854 | 46 ft | 0 kts | 250° |
| 2026-04-24 02:15 | 32.81698 | -118.35854 | 46 ft | 1 kts | 250° |
| 2026-04-24 02:16 | 32.81699 | -118.35854 | 46 ft | 1 kts | 250° |
| 2026-04-24 02:18 | 32.81700 | -118.35853 | 139 ft | 0 kts | 251° |
| 2026-04-24 02:18 | 32.81774 | -118.35855 | 328 ft | 22 kts | 310° |
| 2026-04-24 02:18 | 32.81952 | -118.36024 | 402 ft | 51 kts | 336° |
| 2026-04-24 02:18 | 32.82156 | -118.36071 | 279 ft | 34 kts | 71° |
| 2026-04-24 02:19 | 32.82225 | -118.35842 | 366 ft | 25 kts | 65° |
| 2026-04-24 02:19 | 32.82200 | -118.35663 | 386 ft | 16 kts | 106° |
| 2026-04-24 02:19 | 32.82079 | -118.35608 | 298 ft | 21 kts | 169° |
| 2026-04-24 02:19 | 32.81896 | -118.35576 | 237 ft | 23 kts | 173° |
| 2026-04-24 02:20 | 32.81806 | -118.35574 | 196 ft | 4 kts | 173° |
| 2026-04-24 02:20 | 32.81791 | -118.35590 | 143 ft | 4 kts | 228° |
| 2026-04-24 02:20 | 32.81746 | -118.35649 | 219 ft | 8 kts | 226° |
| 2026-04-24 02:20 | 32.81701 | -118.35738 | 111 ft | 18 kts | 234° |
| 2026-04-24 02:21 | 32.81671 | -118.35805 | 35 ft | 2 kts | 220° |
| 2026-04-24 02:21 | 32.81658 | -118.35827 | 41 ft | 4 kts | 223° |
| 2026-04-24 02:21 | 32.81654 | -118.35841 | 63 ft | 3 kts | 218° |
| 2026-04-24 02:21 | 32.81637 | -118.35842 | 34 ft | 1 kts | 215° |
| 2026-04-24 02:22 | 32.81642 | -118.35851 | 29 ft | 6 kts | 215° |
| 2026-04-24 02:22 | 32.81646 | -118.35857 | 28 ft | 1 kts | 215° |
| 2026-04-24 02:22 | 32.81645 | -118.35857 | 28 ft | 0 kts | 215° |
| 2026-04-24 02:23 | 32.81645 | -118.35858 | 43 ft | 1 kts | 215° |
| 2026-04-24 02:25 | 32.81644 | -118.35858 | 42 ft | 0 kts | 215° |
| 2026-04-24 02:26 | 32.81644 | -118.35859 | 42 ft | 0 kts | 215° |
| 2026-04-24 02:26 | 32.81644 | -118.35858 | 149 ft | 0 kts | 216° |
| 2026-04-24 02:26 | 32.81644 | -118.35859 | 216 ft | 1 kts | 215° |
| 2026-04-24 02:26 | 32.81438 | -118.35656 | 152 ft | 101 kts | 131° |
| 2026-04-24 02:27 | 32.81221 | -118.34772 | 209 ft | 127 kts | 103° |
| 2026-04-24 02:27 | 32.81071 | -118.33671 | 194 ft | 145 kts | 100° |
| 2026-04-24 02:27 | 32.80772 | -118.32490 | 204 ft | 153 kts | 114° |
| 2026-04-24 02:27 | 32.80231 | -118.31312 | 199 ft | 170 kts | 123° |
| 2026-04-24 02:28 | 32.79608 | -118.30119 | 213 ft | 171 kts | 123° |
| 2026-04-24 02:28 | 32.78981 | -118.28913 | 183 ft | 174 kts | 123° |
| 2026-04-24 02:28 | 32.78351 | -118.27695 | 208 ft | 174 kts | 123° |
| 2026-04-24 02:28 | 32.77805 | -118.26633 | 226 ft | 127 kts | 123° |
| 2026-04-24 02:29 | 32.77414 | -118.25850 | 226 ft | 96 kts | 123° |
| 2026-04-24 02:29 | 32.77106 | -118.25204 | 217 ft | 74 kts | 123° |
| 2026-04-24 02:29 | 32.76873 | -118.24771 | 209 ft | 62 kts | 123° |
| 2026-04-24 02:29 | 32.76603 | -118.24346 | 209 ft | 65 kts | 123° |
| 2026-04-24 02:30 | 32.76318 | -118.23932 | 208 ft | 64 kts | 123° |
| 2026-04-24 02:30 | 32.76019 | -118.23530 | 208 ft | 65 kts | 123° |
| 2026-04-24 02:30 | 32.76087 | -118.22878 | 225 ft | 106 kts | 62° |
| 2026-04-24 02:30 | 32.76491 | -118.21923 | 198 ft | 149 kts | 68° |
| 2026-04-24 02:31 | 32.76829 | -118.20661 | 187 ft | 171 kts | 77° |
| 2026-04-24 02:31 | 32.77122 | -118.19266 | 267 ft | 168 kts | 77° |
| 2026-04-24 02:31 | 32.77395 | -118.17951 | 230 ft | 162 kts | 77° |
| 2026-04-24 02:31 | 32.77661 | -118.16662 | 214 ft | 160 kts | 77° |
| 2026-04-24 02:32 | 32.77924 | -118.15368 | 211 ft | 162 kts | 77° |
| 2026-04-24 02:32 | 32.78192 | -118.14074 | 223 ft | 158 kts | 77° |
| 2026-04-24 02:32 | 32.78450 | -118.12831 | 212 ft | 153 kts | 76° |
| 2026-04-24 02:32 | 32.78770 | -118.11634 | 209 ft | 152 kts | 71° |
| 2026-04-24 02:33 | 32.79109 | -118.10433 | 213 ft | 153 kts | 72° |
| 2026-04-24 02:33 | 32.79406 | -118.09231 | 207 ft | 151 kts | 79° |
| 2026-04-24 02:33 | 32.79398 | -118.07981 | 215 ft | 151 kts | 94° |
| 2026-04-24 02:33 | 32.79343 | -118.06739 | 211 ft | 150 kts | 94° |
| 2026-04-24 02:34 | 32.79290 | -118.05492 | 203 ft | 154 kts | 94° |
| 2026-04-24 02:34 | 32.79235 | -118.04198 | 215 ft | 159 kts | 94° |
| 2026-04-24 02:34 | 32.79182 | -118.02871 | 210 ft | 161 kts | 94° |
| 2026-04-24 02:34 | 32.79191 | -118.01538 | 211 ft | 161 kts | 89° |
| 2026-04-24 02:35 | 32.79277 | -118.00229 | 200 ft | 163 kts | 86° |
| 2026-04-24 02:35 | 32.79380 | -117.98831 | 216 ft | 169 kts | 85° |
| 2026-04-24 02:35 | 32.79481 | -117.97475 | 213 ft | 166 kts | 85° |
| 2026-04-24 02:35 | 32.79584 | -117.96091 | 208 ft | 165 kts | 85° |
| 2026-04-24 02:36 | 32.79682 | -117.94749 | 217 ft | 165 kts | 86° |
| 2026-04-24 02:36 | 32.79781 | -117.93389 | 210 ft | 165 kts | 85° |
| 2026-04-24 02:36 | 32.79881 | -117.92039 | 208 ft | 165 kts | 86° |
| 2026-04-24 02:36 | 32.79983 | -117.90675 | 208 ft | 165 kts | 86° |
| 2026-04-24 02:37 | 32.80087 | -117.89318 | 211 ft | 165 kts | 86° |
| 2026-04-24 02:37 | 32.80189 | -117.87961 | 208 ft | 165 kts | 85° |
| 2026-04-24 02:37 | 32.80289 | -117.86608 | 210 ft | 165 kts | 85° |
| 2026-04-24 02:37 | 32.80373 | -117.85250 | 210 ft | 165 kts | 87° |
| 2026-04-24 02:38 | 32.80438 | -117.83891 | 209 ft | 164 kts | 87° |
| 2026-04-24 02:38 | 32.80504 | -117.82535 | 208 ft | 165 kts | 87° |
| 2026-04-24 02:38 | 32.80568 | -117.81179 | 207 ft | 164 kts | 87° |
| 2026-04-24 02:38 | 32.80624 | -117.79820 | 208 ft | 165 kts | 87° |
| 2026-04-24 02:39 | 32.80689 | -117.78462 | 209 ft | 164 kts | 87° |
| 2026-04-24 02:39 | 32.80756 | -117.77110 | 208 ft | 164 kts | 87° |
| 2026-04-24 02:39 | 32.80813 | -117.75753 | 209 ft | 164 kts | 87° |
| 2026-04-24 02:39 | 32.80783 | -117.74396 | 210 ft | 164 kts | 93° |
| 2026-04-24 02:40 | 32.80730 | -117.73037 | 208 ft | 165 kts | 93° |
| 2026-04-24 02:40 | 32.80680 | -117.71680 | 208 ft | 165 kts | 93° |
| 2026-04-24 02:40 | 32.80630 | -117.70319 | 210 ft | 165 kts | 93° |
| 2026-04-24 02:40 | 32.80581 | -117.68965 | 208 ft | 165 kts | 93° |
| 2026-04-24 02:41 | 32.80535 | -117.67606 | 211 ft | 163 kts | 93° |
| 2026-04-24 02:41 | 32.80490 | -117.66285 | 211 ft | 157 kts | 93° |
| 2026-04-24 02:41 | 32.80445 | -117.65002 | 208 ft | 154 kts | 93° |
| 2026-04-24 02:41 | 32.80398 | -117.63736 | 208 ft | 153 kts | 93° |
| 2026-04-24 02:42 | 32.80353 | -117.62478 | 209 ft | 152 kts | 93° |
| 2026-04-24 02:42 | 32.80307 | -117.61223 | 209 ft | 152 kts | 93° |
| 2026-04-24 02:42 | 32.80261 | -117.59971 | 209 ft | 152 kts | 93° |
| 2026-04-24 02:42 | 32.80215 | -117.58735 | 205 ft | 153 kts | 93° |
| 2026-04-24 02:43 | 32.80170 | -117.57458 | 212 ft | 152 kts | 93° |
| 2026-04-24 02:43 | 32.80126 | -117.56204 | 207 ft | 152 kts | 93° |
| 2026-04-24 02:43 | 32.80042 | -117.54968 | 207 ft | 152 kts | 98° |
| 2026-04-24 02:43 | 32.79895 | -117.53710 | 212 ft | 152 kts | 98° |
| 2026-04-24 02:44 | 32.79760 | -117.52472 | 213 ft | 150 kts | 98° |
| 2026-04-24 02:44 | 32.79628 | -117.51258 | 217 ft | 144 kts | 98° |
| 2026-04-24 02:44 | 32.79502 | -117.50111 | 213 ft | 137 kts | 98° |
| 2026-04-24 02:44 | 32.79379 | -117.49008 | 211 ft | 133 kts | 98° |
| 2026-04-24 02:45 | 32.79299 | -117.47923 | 206 ft | 132 kts | 89° |
| 2026-04-24 02:45 | 32.79173 | -117.46914 | 213 ft | 120 kts | 120° |
| 2026-04-24 02:45 | 32.78585 | -117.46272 | 214 ft | 115 kts | 153° |
| 2026-04-24 02:45 | 32.77884 | -117.45920 | 209 ft | 101 kts | 161° |
| 2026-04-24 02:46 | 32.77290 | -117.45608 | 212 ft | 87 kts | 161° |
| 2026-04-24 02:46 | 32.76770 | -117.45321 | 209 ft | 78 kts | 161° |
| 2026-04-24 02:46 | 32.76309 | -117.45060 | 212 ft | 68 kts | 161° |
| 2026-04-24 02:46 | 32.75870 | -117.44802 | 212 ft | 73 kts | 161° |
| 2026-04-24 02:47 | 32.75379 | -117.44538 | 212 ft | 78 kts | 161° |
| 2026-04-24 02:47 | 32.74893 | -117.44274 | 210 ft | 76 kts | 161° |
| 2026-04-24 02:47 | 32.74426 | -117.44012 | 208 ft | 75 kts | 161° |
| 2026-04-24 02:47 | 32.73863 | -117.43706 | 207 ft | 98 kts | 161° |
| 2026-04-24 02:48 | 32.73209 | -117.43371 | 210 ft | 106 kts | 161° |
| 2026-04-24 02:48 | 32.72518 | -117.43027 | 205 ft | 110 kts | 161° |
| 2026-04-24 02:48 | 32.71817 | -117.42688 | 210 ft | 106 kts | 161° |
| 2026-04-24 02:48 | 32.71119 | -117.42349 | 206 ft | 111 kts | 161° |
| 2026-04-24 02:49 | 32.70392 | -117.41998 | 210 ft | 114 kts | 161° |
| 2026-04-24 02:49 | 32.69651 | -117.41640 | 208 ft | 116 kts | 161° |
| 2026-04-24 02:49 | 32.69147 | -117.41395 | 197 ft | 122 kts | 161° |
| 2026-04-24 02:49 | 32.68333 | -117.41002 | 183 ft | 134 kts | 161° |
| 2026-04-24 02:50 | 32.67411 | -117.40561 | 198 ft | 148 kts | 161° |
| 2026-04-24 02:50 | 32.66436 | -117.40099 | 212 ft | 153 kts | 161° |
| 2026-04-24 02:50 | 32.65589 | -117.39449 | 221 ft | 139 kts | 141° |
| 2026-04-24 02:50 | 32.65086 | -117.38526 | 216 ft | 131 kts | 114° |
| 2026-04-24 02:51 | 32.64998 | -117.37481 | 217 ft | 126 kts | 86° |
| 2026-04-24 02:51 | 32.65095 | -117.36471 | 195 ft | 126 kts | 84° |
| 2026-04-24 02:51 | 32.65187 | -117.35397 | 214 ft | 130 kts | 84° |
| 2026-04-24 02:51 | 32.65281 | -117.34334 | 210 ft | 129 kts | 84° |
| 2026-04-24 02:52 | 32.65377 | -117.33275 | 200 ft | 132 kts | 84° |
| 2026-04-24 02:52 | 32.65498 | -117.32177 | 201 ft | 137 kts | 80° |
| 2026-04-24 02:52 | 32.65685 | -117.31053 | 199 ft | 141 kts | 80° |
| 2026-04-24 02:52 | 32.65861 | -117.29909 | 212 ft | 141 kts | 79° |
| 2026-04-24 02:53 | 32.66029 | -117.28735 | 196 ft | 148 kts | 82° |
| 2026-04-24 02:53 | 32.66134 | -117.27511 | 177 ft | 156 kts | 84° |
| 2026-04-24 02:53 | 32.66248 | -117.26211 | 179 ft | 157 kts | 84° |
| 2026-04-24 02:53 | 32.66360 | -117.24951 | 237 ft | 153 kts | 84° |
| 2026-04-24 02:54 | 32.66512 | -117.23683 | 236 ft | 149 kts | 77° |
| 2026-04-24 02:54 | 32.66958 | -117.22733 | 240 ft | 121 kts | 27° |
| 2026-04-24 02:54 | 32.67640 | -117.22151 | 217 ft | 124 kts | 44° |
| 2026-04-24 02:54 | 32.68112 | -117.21302 | 216 ft | 123 kts | 57° |
| 2026-04-24 02:55 | 32.68619 | -117.20501 | 223 ft | 115 kts | 47° |
| 2026-04-24 02:55 | 32.69137 | -117.19934 | 249 ft | 89 kts | 44° |
| 2026-04-24 02:55 | 32.69531 | -117.19479 | 227 ft | 70 kts | 44° |
| 2026-04-24 02:55 | 32.69828 | -117.19085 | 226 ft | 57 kts | 44° |
| 2026-04-24 02:56 | 32.70030 | -117.18784 | 223 ft | 31 kts | 44° |
| 2026-04-24 02:56 | 32.70076 | -117.18725 | 250 ft | 5 kts | 44° |
| 2026-04-24 02:56 | 32.70062 | -117.18744 | 211 ft | 6 kts | 44° |
| 2026-04-24 02:56 | 32.70168 | -117.18627 | 218 ft | 31 kts | 44° |
| 2026-04-24 02:57 | 32.70348 | -117.18438 | 218 ft | 37 kts | 44° |
| 2026-04-24 02:57 | 32.70569 | -117.18186 | 215 ft | 57 kts | 44° |
| 2026-04-24 02:57 | 32.70755 | -117.17983 | 199 ft | 8 kts | 44° |
| 2026-04-24 02:57 | 32.70763 | -117.18018 | 200 ft | 1 kts | 44° |
| 2026-04-24 02:58 | 32.70792 | -117.17977 | 211 ft | 4 kts | 44° |
| 2026-04-24 02:58 | 32.70823 | -117.17937 | 207 ft | 4 kts | 44° |
| 2026-04-24 02:58 | 32.70824 | -117.17934 | 207 ft | 1 kts | 44° |
| 2026-04-24 02:59 | 32.70824 | -117.17935 | 205 ft | 1 kts | 44° |
| 2026-04-24 02:59 | 32.70847 | -117.17974 | 186 ft | 29 kts | 44° |
| 2026-04-24 02:59 | 32.71095 | -117.18242 | 208 ft | 77 kts | 4° |
| 2026-04-24 02:59 | 32.71828 | -117.18408 | 214 ft | 132 kts | 350° |
| 2026-04-24 03:00 | 32.72801 | -117.18671 | 232 ft | 148 kts | 346° |
| 2026-04-24 03:00 | 32.73800 | -117.18505 | 328 ft | 150 kts | 57° |
| 2026-04-24 03:00 | 32.74004 | -117.17317 | 463 ft | 147 kts | 81° |
| 2026-04-24 03:00 | 32.74450 | -117.16297 | 481 ft | 140 kts | 55° |
| 2026-04-24 03:01 | 32.74900 | -117.15303 | 513 ft | 136 kts | 76° |
| 2026-04-24 03:01 | 32.75104 | -117.14192 | 641 ft | 134 kts | 81° |
| 2026-04-24 03:01 | 32.75270 | -117.13117 | 717 ft | 136 kts | 78° |
| 2026-04-24 03:01 | 32.75539 | -117.12016 | 762 ft | 140 kts | 72° |
| 2026-04-24 03:02 | 32.75803 | -117.10938 | 909 ft | 135 kts | 75° |
| 2026-04-24 03:02 | 32.76056 | -117.09915 | 994 ft | 133 kts | 68° |
| 2026-04-24 03:02 | 32.76429 | -117.08881 | 946 ft | 135 kts | 68° |
| 2026-04-24 03:02 | 32.76802 | -117.07853 | 961 ft | 135 kts | 66° |
| 2026-04-24 03:03 | 32.77123 | -117.07066 | 1400 ft | 46 kts | 59° |
| 2026-04-24 03:03 | 32.77269 | -117.06500 | 1195 ft | 105 kts | 86° |
| 2026-04-24 03:03 | 32.77493 | -117.05620 | 829 ft | 121 kts | 70° |
| 2026-04-24 03:03 | 32.77691 | -117.05648 | 654 ft | 55 kts | 283° |
| 2026-04-24 03:04 | 32.77741 | -117.06309 | 739 ft | 97 kts | 265° |
| 2026-04-24 03:04 | 32.77700 | -117.07105 | 841 ft | 76 kts | 179° |
| 2026-04-24 03:04 | 32.77420 | -117.07013 | 852 ft | 71 kts | 108° |
| 2026-04-24 03:04 | 32.77099 | -117.06739 | 855 ft | 20 kts | 30° |
| 2026-04-24 03:05 | 32.77141 | -117.06695 | 701 ft | 39 kts | 16° |
| 2026-04-24 03:05 | 32.77335 | -117.06624 | 730 ft | 15 kts | 15° |
| 2026-04-24 03:05 | 32.77358 | -117.06609 | 613 ft | 1 kts | 15° |
| 2026-04-24 03:05 | 32.77353 | -117.06611 | 550 ft | 1 kts | 15° |
| 2026-04-24 03:06 | 32.77349 | -117.06611 | 653 ft | 1 kts | 308° |
| 2026-04-24 03:06 | 32.77291 | -117.06749 | 756 ft | 34 kts | 262° |
| 2026-04-24 03:06 | 32.77252 | -117.07004 | 825 ft | 81 kts | 278° |
| 2026-04-24 03:06 | 32.77408 | -117.07970 | 741 ft | 149 kts | 280° |
| 2026-04-24 03:07 | 32.77801 | -117.09254 | 552 ft | 174 kts | 293° |
| 2026-04-24 03:07 | 32.77612 | -117.10552 | 578 ft | 163 kts | 236° |
| 2026-04-24 03:07 | 32.77275 | -117.11774 | 626 ft | 158 kts | 289° |
| 2026-04-24 03:07 | 32.77522 | -117.13114 | 716 ft | 165 kts | 267° |
| 2026-04-24 03:08 | 32.77081 | -117.14349 | 1086 ft | 162 kts | 240° |
| 2026-04-24 03:08 | 32.75763 | -117.15737 | 1014 ft | 162 kts | 284° |
| 2026-04-24 03:08 | 32.75786 | -117.17082 | 949 ft | 173 kts | 252° |
| 2026-04-24 03:09 | 32.75245 | -117.18417 | 874 ft | 184 kts | 243° |
| 2026-04-24 03:09 | 32.74317 | -117.19337 | 387 ft | 171 kts | 201° |
| 2026-04-24 03:09 | 32.73117 | -117.19192 | 244 ft | 169 kts | 171° |
| 2026-04-24 03:09 | 32.72553 | -117.18519 | 539 ft | 96 kts | 44° |
| 2026-04-24 03:10 | 32.72492 | -117.18092 | 617 ft | 4 kts | 279° |
| 2026-04-24 03:10 | 32.72561 | -117.18124 | 491 ft | 13 kts | 280° |
| 2026-04-24 03:10 | 32.72588 | -117.18188 | 398 ft | 5 kts | 285° |
| 2026-04-24 03:10 | 32.72613 | -117.18132 | 268 ft | 6 kts | 274° |
| 2026-04-24 03:11 | 32.72617 | -117.18131 | 151 ft | 5 kts | 292° |
| 2026-04-24 03:11 | 32.72617 | -117.18136 | 46 ft | 5 kts | 282° |
| 2026-04-24 03:11 | 32.72617 | -117.18135 | 29 ft | 1 kts | 285° |
| 2026-04-24 03:11 | 32.72621 | -117.18140 | 25 ft | 1 kts | 283° |
| 2026-04-24 03:12 | 32.72628 | -117.18145 | 25 ft | 1 kts | 282° |
| 2026-04-24 03:12 | 32.72627 | -117.18149 | 24 ft | 1 kts | 282° |
| 2026-04-24 03:12 | 32.72629 | -117.18152 | 20 ft | 1 kts | 282° |
| 2026-04-24 03:12 | 32.72632 | -117.18153 | 17 ft | 1 kts | 282° |
| 2026-04-24 03:13 | 32.72634 | -117.18156 | 15 ft | 0 kts | 283° |